Latest Coastal Weather Observations for Frankston

IDV60701

Issued at 11:11 pm EDT Saturday 28 March 2015 (issued every 10 minutes, with the page automatically refreshed every 10 minutes)

About coastal observations | Map of coastal stations | Coastal observations for VIC | Marine services | Other Formats
Station Details ID: 086371 Name: FRANKSTON AWS Lat: -38.15 Lon: 145.12 Height: 6.0 m
Data from the previous 72 hours. | See also: Recent months at Frankston
Date/Time
EDT
Temp

°C
Wind Pressure Rain
since 9am
mm
Weather Cloud Vis
km
Sea
Height
m
Swell
Dir
 
Speed
knots
Gust
knots
hPa Trend Height
m
Period
s
Dir
28/11:00pm 13.0 SSE 4 5 - - - - - - - - - -
28/10:30pm 13.0 SE 3 4 - - - - - - - - - -
28/10:00pm 13.3 SSE 3 4 - - - - - - - - - -
28/09:30pm 13.5 SE 2 3 - - - - - - - - - -
28/09:00pm 13.9 SE 2 3 - - - - - - - - - -
28/08:30pm 14.3 SSE 2 3 - - - - - - - - - -
28/08:00pm 15.2 SE 1 2 - - - - - - - - - -
28/07:30pm 15.9 S 2 3 - - - - - - - - - -
28/07:00pm 16.4 WSW 6 7 - - - - - - - - - -
28/06:30pm 16.3 W 4 6 - - - - - - - - - -
28/06:00pm 16.6 W 3 5 - - - - - - - - - -
28/05:30pm 16.9 NNW 2 2 - - - - - - - - - -
28/05:00pm 16.6 NW 2 2 - - - - - - - - - -
28/04:30pm 16.5 W 1 2 - - - - - - - - - -
28/04:00pm 16.0 W 2 3 - - - - - - - - - -
28/03:30pm 15.5 W 3 4 - - - - - - - - - -
28/03:00pm 15.4 W 3 4 - - - - - - - - - -
28/02:30pm 15.2 NW 4 6 - - - - - - - - - -
28/02:00pm 14.9 CALM 0 2 - - - - - - - - - -
28/01:30pm 14.4 CALM 0 0 - - - - - - - - - -
28/01:00pm 14.3 SW 2 3 - - - - - - - - - -
28/12:30pm 14.1 WNW 3 5 - - - - - - - - - -
28/12:00pm 13.6 SW 7 8 - - - - - - - - - -
28/11:30am 13.6 NW 2 7 - - - - - - - - - -
28/11:00am 12.8 SSW 2 3 - - - - - - - - - -
28/10:30am 12.9 SW 6 8 - - - - - - - - - -
28/10:00am 13.1 WNW 5 6 - - - - - - - - - -
28/09:30am 13.2 WNW 5 8 - - - - - - - - - -
28/09:00am 12.6 W 8 9 - - - - - - - - - -
28/08:30am 13.1 W 9 11 - - - - - - - - - -
28/08:00am 13.1 W 11 12 - - - - - - - - - -
28/07:30am 13.4 WSW 10 12 - - - - - - - - - -
28/07:00am 13.6 WSW 12 15 - - - - - - - - - -
28/06:30am 13.3 W 11 13 - - - - - - - - - -
28/06:00am 13.7 WSW 13 15 - - - - - - - - - -
28/05:30am 13.1 SW 5 9 - - - - - - - - - -
28/05:00am 13.2 S 4 5 - - - - - - - - - -
28/04:30am 13.1 S 4 6 - - - - - - - - - -
28/04:00am 13.5 S 3 5 - - - - - - - - - -
28/03:30am 14.0 SSW 4 7 - - - - - - - - - -
28/03:00am 14.3 SSW 4 6 - - - - - - - - - -
28/02:30am 14.5 SW 7 8 - - - - - - - - - -
28/02:00am 14.4 SW 7 10 - - - - - - - - - -
28/01:30am 14.6 SW 7 10 - - - - - - - - - -
28/01:00am 14.6 SW 6 8 - - - - - - - - - -
28/12:30am 14.1 S 3 5 - - - - - - - - - -
28/12:00am 14.3 SSW 5 7 - - - - - - - - - -
 
Date/Time
EDT
Temp

°C
Wind Pressure Rain
since 9am
mm
Weather Cloud Vis
km
Sea
Height
m
Swell
Dir
 
Speed
knots
Gust
knots
hPa Trend Height
m
Period
s
Dir
27/11:30pm 14.2 SSW 4 9 - - - - - - - - - -
27/11:00pm 14.3 SW 6 9 - - - - - - - - - -
27/10:30pm 14.5 SSW 6 11 - - - - - - - - - -
27/10:00pm 14.3 SSW 4 7 - - - - - - - - - -
27/09:30pm 14.2 WSW 15 23 - - - - - - - - - -
27/09:00pm 15.2 WSW 17 19 - - - - - - - - - -
27/08:30pm 15.4 SW 11 16 - - - - - - - - - -
27/08:00pm 15.4 SW 10 14 - - - - - - - - - -
27/07:30pm 15.4 WSW 16 19 - - - - - - - - - -
27/07:00pm 15.4 SW 11 15 - - - - - - - - - -
27/06:30pm 15.4 SW 15 20 - - - - - - - - - -
27/06:00pm 15.9 WSW 17 21 - - - - - - - - - -
27/05:30pm 15.8 WSW 17 22 - - - - - - - - - -
27/05:00pm 15.6 WSW 18 22 - - - - - - - - - -
27/04:30pm 14.8 SW 13 20 - - - - - - - - - -
27/04:00pm 15.2 WSW 18 23 - - - - - - - - - -
27/03:30pm 15.1 WSW 16 22 - - - - - - - - - -
27/03:00pm 15.0 WSW 20 25 - - - - - - - - - -
27/02:30pm 15.2 WSW 20 25 - - - - - - - - - -
27/02:00pm 14.4 WSW 19 24 - - - - - - - - - -
27/01:30pm 15.3 WSW 21 26 - - - - - - - - - -
27/01:00pm 14.7 W 21 26 - - - - - - - - - -
27/12:30pm 14.3 W 18 26 - - - - - - - - - -
27/12:11pm 13.5 W 17 28 - - - - - - - - - -
27/12:00pm 13.9 W 18 22 - - - - - - - - - -
27/11:30am 14.0 W 20 25 - - - - - - - - - -
27/11:00am 14.3 W 21 27 - - - - - - - - - -
27/10:30am 14.3 W 20 25 - - - - - - - - - -
27/10:00am 14.3 W 19 22 - - - - - - - - - -
27/09:30am 13.8 W 18 22 - - - - - - - - - -
27/09:00am 14.2 W 20 23 - - - - - - - - - -
27/08:30am 14.2 W 21 26 - - - - - - - - - -
27/08:00am 14.1 W 22 26 - - - - - - - - - -
27/07:30am 14.0 W 22 28 - - - - - - - - - -
27/07:00am 14.3 W 22 26 - - - - - - - - - -
27/06:30am 13.5 W 22 27 - - - - - - - - - -
27/06:00am 14.2 W 20 27 - - - - - - - - - -
27/05:30am 14.5 W 19 26 - - - - - - - - - -
27/05:00am 14.6 W 18 23 - - - - - - - - - -
27/04:30am 14.3 W 21 26 - - - - - - - - - -
27/04:00am 14.6 W 19 23 - - - - - - - - - -
27/03:30am 14.6 W 21 25 - - - - - - - - - -
27/03:00am 14.7 W 18 25 - - - - - - - - - -
27/02:30am 14.5 W 22 28 - - - - - - - - - -
27/02:00am 14.8 WNW 24 29 - - - - - - - - - -
27/01:30am 14.7 WNW 23 28 - - - - - - - - - -
27/01:00am 14.8 WNW 21 27 - - - - - - - - - -
27/12:30am 14.7 WNW 23 29 - - - - - - - - - -
27/12:00am 14.6 WNW 23 27 - - - - - - - - - -
 
Date/Time
EDT
Temp

°C
Wind Pressure Rain
since 9am
mm
Weather Cloud Vis
km
Sea
Height
m
Swell
Dir
 
Speed
knots
Gust
knots
hPa Trend Height
m
Period
s
Dir
26/11:30pm 14.5 WNW 22 27 - - - - - - - - - -
26/11:00pm 15.0 WNW 23 28 - - - - - - - - - -
26/10:30pm 14.9 WNW 22 27 - - - - - - - - - -
26/10:00pm 14.7 WNW 23 28 - - - - - - - - - -
26/09:30pm 14.9 WNW 25 31 - - - - - - - - - -
26/09:00pm 14.7 WNW 24 29 - - - - - - - - - -
26/08:30pm 14.7 WNW 24 30 - - - - - - - - - -
26/08:00pm 14.6 WNW 27 35 - - - - - - - - - -
26/07:30pm 15.2 NW 24 33 - - - - - - - - - -
26/07:00pm 15.1 NW 26 33 - - - - - - - - - -
26/06:45pm 15.2 NW 27 37 - - - - - - - - - -
26/06:30pm 15.6 NW 26 34 - - - - - - - - - -
26/06:03pm 15.3 NW 26 36 - - - - - - - - - -
26/06:00pm 15.1 NW 28 36 - - - - - - - - - -
26/05:34pm 15.8 NW 22 32 - - - - - - - - - -
26/05:30pm 15.7 NW 19 28 - - - - - - - - - -
26/05:00pm 14.2 NW 25 37 - - - - - - - - - -
26/04:58pm 15.0 NW 24 36 - - - - - - - - - -
26/04:30pm 16.0 NW 17 24 - - - - - - - - - -
26/04:08pm 16.4 NW 23 37 - - - - - - - - - -
26/04:00pm 16.6 NW 21 27 - - - - - - - - - -
26/03:30pm 16.2 NW 19 27 - - - - - - - - - -
26/03:00pm 16.1 NW 20 26 - - - - - - - - - -
26/02:30pm 15.7 NW 19 22 - - - - - - - - - -
26/02:00pm 15.5 NW 17 21 - - - - - - - - - -
26/01:30pm 15.2 NW 15 19 - - - - - - - - - -
26/01:00pm 14.4 NW 15 19 - - - - - - - - - -
26/12:30pm 14.0 NW 14 17 - - - - - - - - - -
26/12:00pm 13.6 NW 15 19 - - - - - - - - - -
26/11:30am 13.3 NW 16 19 - - - - - - - - - -
26/11:00am 13.1 NW 16 20 - - - - - - - - - -
26/10:30am 13.0 NW 15 21 - - - - - - - - - -
26/10:00am 12.3 NW 13 17 - - - - - - - - - -
26/09:30am 12.3 NW 14 18 - - - - - - - - - -
26/09:00am 12.6 WNW 17 20 - - - - - - - - - -
26/08:30am 12.2 NW 17 22 - - - - - - - - - -
26/08:00am 12.4 NW 16 20 - - - - - - - - - -
26/07:30am 12.3 NW 15 20 - - - - - - - - - -
26/07:00am 12.4 NW 16 21 - - - - - - - - - -
26/06:30am 12.6 NW 15 19 - - - - - - - - - -
26/06:00am 12.8 WNW 16 21 - - - - - - - - - -
26/05:30am 12.4 NW 17 21 - - - - - - - - - -
26/05:00am 12.6 NW 16 20 - - - - - - - - - -
26/04:30am 12.0 NW 13 17 - - - - - - - - - -
26/04:00am 11.6 WNW 16 21 - - - - - - - - - -
26/03:30am 12.7 WNW 15 19 - - - - - - - - - -
26/03:00am 13.0 WNW 17 21 - - - - - - - - - -
26/02:30am 13.4 WNW 18 23 - - - - - - - - - -
26/02:00am 13.5 W 22 27 - - - - - - - - - -
26/01:30am 13.4 W 22 27 - - - - - - - - - -
26/01:00am 14.6 WNW 23 29 - - - - - - - - - -
26/12:51am 15.4 NNW 8 24 - - - - - - - - - -
26/12:30am 14.1 ENE 4 7 - - - - - - - - - -
26/12:00am 13.9 E 5 7 - - - - - - - - - -
 
Date/Time
EDT
Temp

°C
Wind Pressure Rain
since 9am
mm
Weather Cloud Vis
km
Sea
Height
m
Swell
Dir
 
Speed
knots
Gust
knots
hPa Trend Height
m
Period
s
Dir
25/11:30pm 14.2 ESE 5 7 - - - - - - - - - -

Other Formats:

Comma delimited format used in spreadsheet applications
http://www.bom.gov.au/fwo/IDV60701/IDV60701.94871.axf

JavaScript Object Notation format (JSON) in row-major order
http://www.bom.gov.au/fwo/IDV60701/IDV60701.94871.json